Time;durP1;ratioP1;P1;durP2;ratioP2;P2;SDS_P1;SDS_P2;PMS_P1;PMS_P2;Temp;Humidity;BMP_temperature;BMP_pressure;BME280_temperature;BME280_humidity;BME280_pressure;Samples;Min_cycle;Max_cycle;Signal;HPM_P1;HPM_P2
2021/07/29 00:01:25;;;;;;;15.60;9.28;;;;;;;17.54;75.67;99868.70;2033884;85;21594;-72
2021/07/29 00:04:28;;;;;;;19.82;9.10;;;;;;;17.50;75.69;99873.38;2083901;83;21072;-72
2021/07/29 00:07:30;;;;;;;14.40;8.08;;;;;;;17.48;75.51;99874.92;2075539;83;21072;-72
2021/07/29 00:10:31;;;;;;;9.63;7.47;;;;;;;17.41;75.20;99871.48;2065915;83;21037;-71
2021/07/29 00:13:33;;;;;;;12.82;8.10;;;;;;;17.34;75.36;99873.37;2074264;83;21133;-71
2021/07/29 00:16:43;;;;;;;14.40;9.40;;;;;;;17.27;75.24;99876.63;2087535;83;21037;-72
2021/07/29 00:19:38;;;;;;;14.80;8.83;;;;;;;17.20;75.35;99875.31;2077362;82;21125;-72
2021/07/29 00:22:41;;;;;;;15.95;8.40;;;;;;;17.17;75.28;99866.36;2076001;83;21022;-72
2021/07/29 00:25:42;;;;;;;15.23;9.40;;;;;;;17.12;75.16;99869.71;2083252;83;21545;-71
2021/07/29 00:28:44;;;;;;;11.20;8.60;;;;;;;17.10;75.34;99862.39;2085893;83;21040;-73
2021/07/29 00:31:45;;;;;;;9.90;8.35;;;;;;;17.07;75.08;99861.48;2090628;83;21101;-72
2021/07/29 00:34:47;;;;;;;14.43;10.53;;;;;;;17.03;75.21;99865.63;2075298;82;21185;-72
2021/07/29 00:37:53;;;;;;;15.93;9.03;;;;;;;16.98;75.41;99863.60;2086200;83;21050;-71
2021/07/29 00:40:55;;;;;;;22.30;9.23;;;;;;;16.97;75.44;99859.26;2089449;83;21044;-72
2021/07/29 00:44:02;;;;;;;14.93;10.20;;;;;;;16.92;75.13;99868.98;2086323;83;21101;-72
2021/07/29 00:47:06;;;;;;;15.10;9.20;;;;;;;16.87;75.16;99862.13;2072131;83;21087;-72
2021/07/29 00:50:10;;;;;;;17.50;8.70;;;;;;;16.84;75.13;99862.03;2080716;83;21103;-71
2021/07/29 00:53:13;;;;;;;14.75;8.85;;;;;;;16.84;75.14;99864.71;2083787;83;21021;-72
2021/07/29 00:56:15;;;;;;;12.95;9.85;;;;;;;16.79;75.03;99871.22;2094112;83;21033;-71
2021/07/29 00:59:16;;;;;;;11.15;8.25;;;;;;;16.73;74.92;99868.03;2076267;83;22108;-72
2021/07/29 01:02:18;;;;;;;12.40;7.25;;;;;;;16.64;74.92;99863.92;2024308;85;21056;-71
2021/07/29 01:05:21;;;;;;;7.83;7.03;;;;;;;16.57;74.74;99870.13;2012090;86;21557;-71
2021/07/29 01:08:23;;;;;;;15.03;8.68;;;;;;;16.51;74.72;99879.02;2031764;85;21008;-72
2021/07/29 01:11:25;;;;;;;14.15;9.45;;;;;;;16.48;75.20;99879.45;2024197;85;21600;-71
2021/07/29 01:14:26;;;;;;;11.68;9.25;;;;;;;16.48;75.27;99876.77;2102355;82;21458;-72
2021/07/29 01:17:30;;;;;;;9.45;8.45;;;;;;;16.43;75.71;99876.58;2094088;83;21182;-72
2021/07/29 01:20:31;;;;;;;21.68;9.35;;;;;;;16.40;75.87;99871.64;2090836;82;21105;-71
2021/07/29 01:23:33;;;;;;;13.98;7.58;;;;;;;16.40;75.64;99874.32;2091196;82;21159;-72
2021/07/29 01:26:35;;;;;;;11.97;8.38;;;;;;;16.34;75.29;99869.29;2098848;83;21013;-72
2021/07/29 01:29:36;;;;;;;9.25;8.05;;;;;;;16.29;75.06;99875.78;2106395;82;21057;-70
2021/07/29 01:32:39;;;;;;;8.65;7.37;;;;;;;16.20;75.24;99865.53;2088109;83;21005;-72
2021/07/29 01:35:43;;;;;;;9.83;6.75;;;;;;;16.14;75.57;99868.00;2108913;82;21123;-73
2021/07/29 01:38:44;;;;;;;8.53;6.55;;;;;;;16.10;75.71;99869.95;2086936;83;21046;-72
2021/07/29 01:41:46;;;;;;;16.27;8.83;;;;;;;16.04;75.65;99868.12;2083145;82;21056;-71
2021/07/29 01:44:47;;;;;;;11.83;9.03;;;;;;;16.05;76.02;99862.57;2095825;82;21122;-71
2021/07/29 01:47:49;;;;;;;12.53;7.50;;;;;;;16.02;75.85;99867.01;2080299;83;21100;-72
2021/07/29 01:50:50;;;;;;;10.65;6.80;;;;;;;15.97;75.76;99860.63;2099960;83;21085;-71
2021/07/29 01:53:52;;;;;;;11.35;8.25;;;;;;;15.91;75.76;99862.28;2082310;82;21062;-71
2021/07/29 01:56:54;;;;;;;12.55;7.80;;;;;;;15.90;75.85;99863.30;2086220;83;21539;-72
2021/07/29 01:59:55;;;;;;;13.85;9.23;;;;;;;15.87;75.66;99857.02;2090004;82;21336;-71
2021/07/29 02:02:57;;;;;;;16.90;8.75;;;;;;;15.85;75.95;99850.56;2089913;82;21121;-71
2021/07/29 02:06:02;;;;;;;13.45;10.53;;;;;;;15.90;76.10;99853.94;2091884;83;21119;-71
2021/07/29 02:09:07;;;;;;;14.73;11.43;;;;;;;15.88;76.10;99860.00;2096332;82;21101;-72
2021/07/29 02:12:09;;;;;;;11.28;9.80;;;;;;;15.89;76.57;99857.13;2088102;83;21034;-72
2021/07/29 02:15:11;;;;;;;11.78;9.98;;;;;;;15.89;76.62;99854.45;2083691;82;21064;-72
2021/07/29 02:18:12;;;;;;;14.98;9.53;;;;;;;15.86;76.61;99856.73;2069871;82;21120;-71
2021/07/29 02:21:14;;;;;;;19.05;8.43;;;;;;;15.80;76.63;99851.70;2094626;82;21523;-73
2021/07/29 02:24:16;;;;;;;14.70;8.13;;;;;;;15.77;76.29;99862.81;2105584;82;21089;-71
2021/07/29 02:27:18;;;;;;;13.35;8.98;;;;;;;15.75;76.10;99856.02;2095392;82;21097;-71
2021/07/29 02:30:20;;;;;;;10.23;8.35;;;;;;;15.75;76.25;99860.03;2084756;83;21144;-72
2021/07/29 02:33:22;;;;;;;13.90;9.28;;;;;;;15.76;76.07;99858.99;2095838;82;21160;-72
2021/07/29 02:36:24;;;;;;;12.93;10.10;;;;;;;15.75;76.10;99858.69;2098290;82;21080;-71
2021/07/29 02:39:25;;;;;;;11.97;7.42;;;;;;;15.76;76.29;99855.80;2076262;83;21188;-72
2021/07/29 02:42:27;;;;;;;14.93;8.05;;;;;;;15.75;76.10;99861.37;2106648;81;21069;-72
2021/07/29 02:45:28;;;;;;;10.72;8.18;;;;;;;15.69;75.93;99863.83;2088835;82;22497;-71
2021/07/29 02:48:30;;;;;;;13.48;8.70;;;;;;;15.68;75.82;99860.86;2095480;82;21052;-71
2021/07/29 02:51:32;;;;;;;17.45;9.20;;;;;;;15.65;75.82;99863.92;2097417;82;21112;-71
2021/07/29 02:54:34;;;;;;;14.83;8.85;;;;;;;15.61;76.03;99871.21;2078297;82;21073;-71
2021/07/29 02:57:36;;;;;;;13.78;8.15;;;;;;;15.58;76.20;99861.75;2090764;83;21105;-71
2021/07/29 03:00:37;;;;;;;10.55;7.37;;;;;;;15.55;75.89;99863.50;2104992;83;21037;-73
2021/07/29 03:03:39;;;;;;;13.68;7.60;;;;;;;15.51;75.81;99866.77;2099496;83;21111;-72
2021/07/29 03:06:40;;;;;;;11.63;7.42;;;;;;;15.47;75.71;99861.02;2101154;82;21025;-72
2021/07/29 03:09:42;;;;;;;10.43;7.65;;;;;;;15.41;75.77;99859.98;2087997;82;21082;-71
2021/07/29 03:12:44;;;;;;;11.60;8.30;;;;;;;15.42;75.83;99862.95;2093875;82;21093;-72
2021/07/29 03:15:46;;;;;;;11.40;8.40;;;;;;;15.43;76.32;99861.14;2102446;83;21101;-72
2021/07/29 03:18:48;;;;;;;11.90;7.80;;;;;;;15.42;76.42;99859.47;2096031;82;22402;-71
2021/07/29 03:21:49;;;;;;;11.30;7.17;;;;;;;15.41;76.42;99863.18;2093318;83;21648;-71
2021/07/29 03:24:51;;;;;;;10.68;7.28;;;;;;;15.41;76.52;99865.34;2096878;82;21126;-72
2021/07/29 03:27:52;;;;;;;10.58;6.83;;;;;;;15.39;76.41;99866.56;2095616;82;21068;-71
2021/07/29 03:30:54;;;;;;;11.25;6.62;;;;;;;15.37;76.36;99870.80;2085430;82;21136;-71
2021/07/29 03:33:56;;;;;;;20.35;9.00;;;;;;;15.38;76.28;99871.61;2093633;82;21092;-70
2021/07/29 03:36:58;;;;;;;12.63;8.60;;;;;;;15.37;76.72;99869.95;2107662;82;21151;-69
2021/07/29 03:40:09;;;;;;;6.58;5.92;;;;;;;15.45;76.92;99865.22;2079220;83;21074;-69
2021/07/29 03:43:04;;;;;;;11.53;6.95;;;;;;;15.57;76.43;99868.13;2077664;82;21202;-69
2021/07/29 03:46:06;;;;;;;10.63;6.95;;;;;;;15.74;76.41;99873.08;2093508;82;21028;-69
2021/07/29 03:49:07;;;;;;;12.90;6.50;;;;;;;15.98;76.38;99869.77;2094286;83;21670;-69
2021/07/29 03:52:09;;;;;;;10.43;6.83;;;;;;;16.21;76.21;99867.98;2089008;82;21924;-70
2021/07/29 03:55:11;;;;;;;10.18;6.92;;;;;;;16.51;76.28;99874.19;2095677;82;21040;-70
2021/07/29 03:58:12;;;;;;;11.30;6.42;;;;;;;16.80;76.09;99870.98;2093171;83;21539;-70
2021/07/29 04:01:14;;;;;;;9.45;5.78;;;;;;;17.13;75.55;99873.20;2085260;82;21079;-70
2021/07/29 04:04:15;;;;;;;9.25;6.78;;;;;;;17.43;75.08;99878.27;2091708;82;21104;-70
2021/07/29 04:07:17;;;;;;;10.00;7.00;;;;;;;17.69;74.97;99878.58;2090620;82;21588;-70
2021/07/29 04:10:19;;;;;;;10.03;6.08;;;;;;;18.08;74.76;99878.48;2089305;82;21038;-70
2021/07/29 04:13:20;;;;;;;9.68;5.70;;;;;;;18.45;74.32;99881.19;2102635;82;21623;-70
2021/07/29 04:16:22;;;;;;;8.03;5.90;;;;;;;18.73;73.57;99886.84;2097942;82;21052;-70
2021/07/29 04:19:24;;;;;;;6.85;5.87;;;;;;;19.12;73.54;99887.91;2088378;82;21048;-70
2021/07/29 04:22:26;;;;;;;10.82;6.83;;;;;;;19.54;72.80;99891.45;2104272;82;21133;-70
2021/07/29 04:25:28;;;;;;;13.68;7.05;;;;;;;19.90;72.37;99889.63;2095228;82;20994;-70
2021/07/29 04:28:29;;;;;;;10.10;6.50;;;;;;;20.35;72.05;99886.33;2099649;82;21022;-70
2021/07/29 04:31:31;;;;;;;12.07;6.35;;;;;;;20.75;71.36;99889.61;2081888;83;21488;-71
2021/07/29 04:34:33;;;;;;;8.80;5.90;;;;;;;21.10;70.70;99888.14;2096399;82;21029;-70
2021/07/29 04:37:34;;;;;;;11.08;5.90;;;;;;;21.44;70.15;99889.05;2091024;82;21052;-70
2021/07/29 04:40:36;;;;;;;10.43;6.22;;;;;;;21.86;69.57;99890.54;2090982;82;21532;-70
2021/07/29 04:43:38;;;;;;;15.10;6.55;;;;;;;22.30;68.76;99894.20;2095470;82;21964;-70
2021/07/29 04:46:41;;;;;;;11.33;6.33;;;;;;;22.67;68.07;99900.34;2089691;82;21015;-71
2021/07/29 04:49:43;;;;;;;7.53;5.60;;;;;;;23.12;67.39;99895.75;2095032;82;21030;-71
2021/07/29 04:52:45;;;;;;;10.70;5.75;;;;;;;23.42;66.41;99897.92;2090009;83;21141;-68
2021/07/29 04:55:47;;;;;;;8.98;5.78;;;;;;;23.68;65.69;99903.85;2108246;82;21072;-70
2021/07/29 04:58:49;;;;;;;11.30;5.40;;;;;;;23.96;65.12;99912.73;2090263;82;21077;-70
2021/07/29 05:01:51;;;;;;;8.60;5.25;;;;;;;24.28;64.01;99907.81;2102819;82;21044;-70
2021/07/29 05:04:52;;;;;;;12.50;5.90;;;;;;;24.52;63.70;99902.80;2080896;82;21619;-70
2021/07/29 05:07:54;;;;;;;11.08;5.47;;;;;;;24.87;62.86;99907.57;2075912;83;21049;-70
2021/07/29 05:10:55;;;;;;;9.48;5.08;;;;;;;25.00;61.83;99913.86;2096692;82;21557;-70
2021/07/29 05:13:57;;;;;;;6.30;5.40;;;;;;;25.15;61.14;99915.02;2098975;82;21092;-72
2021/07/29 05:17:02;;;;;;;8.40;5.40;;;;;;;25.18;60.95;99903.07;2101844;82;21093;-71
2021/07/29 05:20:04;;;;;;;10.28;5.28;;;;;;;25.55;60.62;99918.88;2093624;82;21021;-71
2021/07/29 05:23:06;;;;;;;5.47;4.87;;;;;;;25.72;59.71;99920.22;2093202;82;21059;-67
2021/07/29 05:26:16;;;;;;;7.35;5.50;;;;;;;25.87;59.34;99926.77;2100846;82;21030;-71
2021/07/29 05:29:18;;;;;;;11.50;5.30;;;;;;;26.04;58.45;99922.41;2105827;82;21492;-68
2021/07/29 05:32:19;;;;;;;10.58;5.17;;;;;;;26.17;58.00;99913.70;2077892;83;21037;-71
2021/07/29 05:35:21;;;;;;;11.57;4.87;;;;;;;26.51;57.71;99919.89;2111261;82;21093;-71
2021/07/29 05:38:23;;;;;;;9.15;5.17;;;;;;;26.63;56.85;99916.85;2091602;82;21127;-72
2021/07/29 05:41:25;;;;;;;8.38;5.08;;;;;;;26.77;56.33;99911.89;2102319;83;21651;-74
2021/07/29 05:44:26;;;;;;;8.30;5.15;;;;;;;26.88;56.11;99912.66;2088420;83;21022;-70
2021/07/29 05:47:28;;;;;;;6.08;4.62;;;;;;;27.16;55.97;99906.28;2088534;82;21097;-72
2021/07/29 05:50:30;;;;;;;10.18;5.15;;;;;;;27.23;54.61;99903.52;2093122;82;21017;-71
2021/07/29 05:53:31;;;;;;;9.15;5.35;;;;;;;27.07;54.50;99910.12;2102497;82;21516;-71
2021/07/29 05:56:33;;;;;;;15.10;5.65;;;;;;;27.11;54.50;99911.17;2095395;82;22183;-72
2021/07/29 05:59:34;;;;;;;8.00;4.42;;;;;;;27.40;54.46;99906.41;2101677;82;21490;-72
2021/07/29 06:02:36;;;;;;;9.58;5.15;;;;;;;27.60;53.50;99913.05;2101821;83;21018;-70
2021/07/29 06:05:37;;;;;;;6.03;4.65;;;;;;;27.72;53.05;99908.04;2097528;82;21022;-71
2021/07/29 06:08:41;;;;;;;12.55;5.03;;;;;;;28.02;53.04;99910.27;2095136;83;22504;-74
2021/07/29 06:11:43;;;;;;;11.05;4.80;;;;;;;28.22;52.24;99910.61;2089645;83;21156;-72
2021/07/29 06:14:45;;;;;;;8.95;4.65;;;;;;;28.41;51.95;99905.23;2084319;82;21026;-75
2021/07/29 06:17:51;;;;;;;10.88;4.92;;;;;;;28.28;50.71;99911.37;2097054;81;21092;-72
2021/07/29 06:20:49;;;;;;;15.88;5.35;;;;;;;28.13;50.54;99902.25;2091702;82;21024;-74
2021/07/29 06:23:51;;;;;;;9.15;4.92;;;;;;;28.02;50.67;99904.00;2100308;82;21576;-72
2021/07/29 06:26:53;;;;;;;7.33;5.15;;;;;;;28.05;51.00;99914.34;2097506;83;21611;-73
2021/07/29 06:29:55;;;;;;;9.60;5.05;;;;;;;28.20;50.55;99906.54;2113895;82;21033;-73
2021/07/29 06:32:58;;;;;;;10.60;4.97;;;;;;;28.30;50.50;99906.44;2099626;83;21076;-73
2021/07/29 06:36:02;;;;;;;7.33;4.78;;;;;;;28.50;50.37;99899.41;2090573;83;21086;-73
2021/07/29 06:39:04;;;;;;;11.00;4.75;;;;;;;28.80;50.31;99902.32;2094997;82;21115;-74
2021/07/29 06:42:06;;;;;;;10.60;5.40;;;;;;;28.99;49.72;99902.87;2093818;83;20998;-72
2021/07/29 06:45:08;;;;;;;9.13;4.90;;;;;;;29.13;49.71;99894.23;2098915;82;21176;-72
2021/07/29 06:48:09;;;;;;;9.55;4.75;;;;;;;29.33;48.79;99896.40;2091215;82;21022;-72
2021/07/29 06:51:11;;;;;;;7.75;5.00;;;;;;;29.38;47.84;99897.13;2079648;83;21078;-72
2021/07/29 06:54:12;;;;;;;9.30;4.90;;;;;;;29.15;47.74;99893.39;2086901;83;21532;-72
2021/07/29 06:57:14;;;;;;;7.72;4.87;;;;;;;29.14;47.95;99893.67;2084648;82;21141;-73
2021/07/29 07:00:16;;;;;;;7.03;5.12;;;;;;;29.40;47.73;99905.05;2073402;83;21061;-69
2021/07/29 07:03:18;;;;;;;8.60;4.37;;;;;;;29.58;47.35;99896.55;2094241;82;21111;-72
2021/07/29 07:06:19;;;;;;;9.25;4.55;;;;;;;29.66;47.29;99909.57;2108352;82;21028;-71
2021/07/29 07:09:21;;;;;;;6.42;4.83;;;;;;;29.69;47.07;99910.34;2090381;82;21023;-72
2021/07/29 07:12:22;;;;;;;6.58;4.35;;;;;;;29.86;46.94;99898.84;2076980;83;21112;-72
2021/07/29 07:15:24;;;;;;;5.62;4.90;;;;;;;29.99;47.04;99891.76;2076966;83;21055;-72
2021/07/29 07:18:25;;;;;;;7.58;4.67;;;;;;;29.97;46.37;99868.02;2081573;83;21076;-72
2021/07/29 07:21:27;;;;;;;9.25;4.62;;;;;;;30.13;46.15;99889.88;2081776;82;21575;-72
2021/07/29 07:24:31;;;;;;;7.28;4.53;;;;;;;30.29;45.54;99885.74;2098813;82;21611;-72
2021/07/29 07:27:32;;;;;;;6.45;4.30;;;;;;;30.14;45.41;99881.91;2081543;82;21076;-72
2021/07/29 07:30:34;;;;;;;6.20;4.53;;;;;;;30.27;45.00;99883.89;2088998;82;21041;-72
2021/07/29 07:33:36;;;;;;;9.38;5.25;;;;;;;30.15;45.02;99879.42;2101673;83;21002;-72
2021/07/29 07:36:38;;;;;;;9.88;4.47;;;;;;;30.28;44.97;99874.55;2102953;82;21046;-72
2021/07/29 07:39:39;;;;;;;7.55;4.40;;;;;;;30.41;45.12;99864.73;2082684;82;21005;-72
2021/07/29 07:42:41;;;;;;;5.72;3.92;;;;;;;30.51;43.91;99871.34;2087592;83;21159;-72
2021/07/29 07:45:43;;;;;;;7.45;4.47;;;;;;;30.56;44.48;99867.14;2092176;82;21105;-72
2021/07/29 07:48:46;;;;;;;5.60;4.15;;;;;;;30.79;43.77;99866.67;2088916;82;21124;-73
2021/07/29 07:51:48;;;;;;;5.17;3.87;;;;;;;30.85;42.74;99866.56;2090553;83;21136;-72
2021/07/29 07:54:50;;;;;;;5.10;4.42;;;;;;;30.74;43.05;99863.20;2095896;82;21851;-72
2021/07/29 07:57:52;;;;;;;10.05;4.35;;;;;;;30.75;43.15;99864.28;2087305;82;21324;-72
2021/07/29 08:00:53;;;;;;;4.42;4.03;;;;;;;31.01;43.35;99858.25;2088596;82;21121;-72
2021/07/29 08:03:55;;;;;;;3.92;3.52;;;;;;;31.24;42.58;99853.03;2090211;83;21079;-73
2021/07/29 08:06:56;;;;;;;5.65;4.08;;;;;;;30.87;41.90;99858.86;2076146;83;21129;-72
2021/07/29 08:09:58;;;;;;;5.33;3.83;;;;;;;30.81;42.49;99868.55;2087261;83;21145;-72
2021/07/29 08:12:59;;;;;;;6.22;4.17;;;;;;;30.90;42.41;99859.61;2099677;82;21588;-72
2021/07/29 08:16:01;;;;;;;6.17;4.00;;;;;;;31.01;41.95;99860.42;2083147;82;21129;-72
2021/07/29 08:19:02;;;;;;;9.70;4.28;;;;;;;31.02;41.84;99863.97;2079745;83;21134;-72
2021/07/29 08:22:04;;;;;;;7.12;4.15;;;;;;;30.96;41.96;99858.37;2095633;82;21093;-71
2021/07/29 08:25:06;;;;;;;8.30;4.17;;;;;;;30.90;41.90;99856.87;2102594;83;21053;-75
2021/07/29 08:28:07;;;;;;;5.08;3.90;;;;;;;30.92;41.66;99850.53;2099982;83;21101;-74
2021/07/29 08:31:11;;;;;;;5.10;4.60;;;;;;;30.69;41.55;99859.20;2081528;83;22032;-74
2021/07/29 08:34:13;;;;;;;6.12;4.40;;;;;;;30.65;41.14;99848.06;2096304;82;21074;-75
2021/07/29 08:37:15;;;;;;;4.95;4.05;;;;;;;30.54;41.85;99848.83;2087848;82;21039;-73
2021/07/29 08:40:19;;;;;;;5.42;4.00;;;;;;;30.49;40.82;99852.23;2091130;83;21033;-72
2021/07/29 08:43:27;;;;;;;3.90;3.58;;;;;;;30.46;40.75;99855.59;2099216;82;21073;-73
2021/07/29 08:46:27;;;;;;;7.17;3.70;;;;;;;30.52;40.37;99846.15;2105074;82;21966;-73
2021/07/29 08:49:29;;;;;;;3.75;3.33;;;;;;;30.48;40.29;99849.25;2096837;81;21490;-73
2021/07/29 08:52:31;;;;;;;5.65;3.80;;;;;;;30.58;40.01;99851.23;2081095;83;21591;-74
2021/07/29 08:55:33;;;;;;;7.42;4.00;;;;;;;30.77;40.07;99853.80;2105283;81;21069;-73
2021/07/29 08:58:34;;;;;;;4.47;3.50;;;;;;;30.26;39.18;99855.45;2062701;83;21673;-74
2021/07/29 09:01:45;;;;;;;6.25;4.00;;;;;;;29.98;40.06;99855.96;2082714;83;21656;-74
2021/07/29 09:05:11;;;;;;;4.22;3.47;;;;;;;30.18;39.55;99855.56;2089486;82;21034;-73
2021/07/29 09:08:14;;;;;;;3.67;3.37;;;;;;;30.24;39.76;99851.66;2090659;82;21528;-72
2021/07/29 09:11:39;;;;;;;5.42;3.83;;;;;;;30.57;39.90;99855.63;2094783;83;21509;-73
2021/07/29 09:14:37;;;;;;;5.33;4.03;;;;;;;30.61;39.41;99852.54;2078288;83;21105;-74
2021/07/29 09:17:44;;;;;;;4.45;4.05;;;;;;;30.69;39.65;99846.34;2071064;83;21068;-74
2021/07/29 09:20:46;;;;;;;5.45;3.83;;;;;;;30.86;39.67;99846.27;2087041;83;21076;-74
2021/07/29 09:24:09;;;;;;;4.90;3.92;;;;;;;30.63;39.40;99851.66;2088574;82;21139;-74
2021/07/29 09:27:11;;;;;;;4.50;4.10;;;;;;;30.34;39.93;99844.59;2002437;86;21129;-75
2021/07/29 09:30:26;;;;;;;5.37;4.25;;;;;;;30.43;40.37;99846.06;2020568;85;21053;-74
2021/07/29 09:33:28;;;;;;;4.83;4.15;;;;;;;30.30;40.17;99842.23;2012462;86;21133;-74
2021/07/29 09:36:32;;;;;;;6.78;4.45;;;;;;;30.55;40.69;99844.16;2030337;85;21081;-75
2021/07/29 09:39:33;;;;;;;6.70;4.30;;;;;;;30.84;40.19;99837.00;2007777;86;21098;-74
2021/07/29 09:42:37;;;;;;;4.62;4.15;;;;;;;31.05;40.67;99824.43;2006327;85;21066;-73
2021/07/29 09:45:40;;;;;;;4.55;4.00;;;;;;;30.98;39.91;99824.63;2024455;85;21110;-74
2021/07/29 09:48:43;;;;;;;6.33;3.67;;;;;;;31.07;39.94;99816.48;2012105;85;21188;-74
2021/07/29 09:51:45;;;;;;;4.20;3.80;;;;;;;31.32;39.34;99814.48;2025437;85;21039;-74
2021/07/29 09:54:47;;;;;;;6.90;4.12;;;;;;;31.20;38.64;99815.05;2013143;85;21075;-74
2021/07/29 09:57:49;;;;;;;5.45;3.37;;;;;;;30.86;39.16;99814.77;2012867;85;21057;-73
2021/07/29 10:00:50;;;;;;;4.50;4.10;;;;;;;30.71;37.86;99813.97;2016558;85;21088;-74
2021/07/29 10:03:52;;;;;;;4.92;4.00;;;;;;;30.78;39.04;99813.56;2023889;85;22323;-74
2021/07/29 10:06:58;;;;;;;4.35;3.95;;;;;;;30.49;39.10;99820.76;2022381;85;21101;-74
2021/07/29 10:10:03;;;;;;;4.83;3.60;;;;;;;30.10;39.13;99812.49;2016965;85;21118;-73
2021/07/29 10:13:05;;;;;;;5.28;3.83;;;;;;;29.64;38.70;99814.18;2067846;84;21072;-75
2021/07/29 10:16:09;;;;;;;4.37;3.98;;;;;;;28.87;39.73;99806.38;2056299;84;21172;-75
2021/07/29 10:19:11;;;;;;;4.97;4.40;;;;;;;28.87;39.73;99806.38;2055617;84;21096;-74
2021/07/29 10:22:23;;;;;;;5.33;4.22;;;;;;;28.60;40.05;99809.77;2064133;84;21155;-75
2021/07/29 10:25:25;;;;;;;4.12;3.67;;;;;;;28.25;40.67;99802.28;2065629;84;22294;-74
2021/07/29 10:28:29;;;;;;;4.30;3.90;;;;;;;27.96;41.52;99810.54;2031660;84;21083;-74
2021/07/29 10:31:52;;;;;;;4.83;4.15;;;;;;;27.71;42.00;99803.41;2064911;84;21065;-77
2021/07/29 10:34:54;;;;;;;4.87;4.20;;;;;;;27.59;42.02;99807.05;2056739;84;21034;-75
2021/07/29 10:37:57;;;;;;;4.72;3.60;;;;;;;27.32;42.29;99804.86;2062039;84;21570;-80
2021/07/29 10:41:04;;;;;;;4.08;3.67;;;;;;;27.10;43.15;99808.80;2090186;82;21659;-73
2021/07/29 10:44:03;;;;;;;5.10;4.55;;;;;;;26.87;43.35;99817.14;2095443;82;21062;-72
2021/07/29 10:47:07;;;;;;;5.00;4.50;;;;;;;26.75;43.65;99809.32;2096245;82;21105;-72
2021/07/29 10:50:11;;;;;;;5.75;4.58;;;;;;;26.69;43.85;99811.78;2081882;82;20985;-72
2021/07/29 10:53:13;;;;;;;4.70;4.20;;;;;;;26.62;43.99;99809.13;2089398;82;21144;-73
2021/07/29 10:56:19;;;;;;;5.40;4.33;;;;;;;26.48;44.44;99814.33;2092580;82;21050;-72
2021/07/29 10:59:22;;;;;;;6.55;5.10;;;;;;;26.35;44.92;99813.82;2098717;82;21069;-77
2021/07/29 11:02:51;;;;;;;7.65;4.50;;;;;;;26.30;45.25;99811.15;2085620;82;21627;-74
2021/07/29 11:05:54;;;;;;;4.20;3.80;;;;;;;26.38;45.31;99816.53;2070609;83;21659;-72
2021/07/29 11:08:52;;;;;;;4.33;3.85;;;;;;;26.35;44.16;99821.17;2086331;82;21017;-74
2021/07/29 11:11:54;;;;;;;4.70;4.12;;;;;;;26.19;43.55;99820.44;2052842;84;21046;-76
2021/07/29 11:14:59;;;;;;;4.17;3.50;;;;;;;26.12;43.84;99823.98;2034425;84;21124;-73
2021/07/29 11:18:13;;;;;;;3.70;3.40;;;;;;;26.30;43.71;99827.98;2025135;85;21047;-74
2021/07/29 11:21:18;;;;;;;5.05;3.67;;;;;;;26.80;43.35;99824.78;2015113;86;21014;-74
2021/07/29 11:24:25;;;;;;;4.00;3.60;;;;;;;27.61;42.73;99817.13;2057088;84;21045;-73
2021/07/29 11:27:31;;;;;;;4.05;3.65;;;;;;;28.03;42.54;99814.27;2056267;84;21057;-72
2021/07/29 11:30:42;;;;;;;3.87;3.58;;;;;;;28.56;41.71;99813.64;2045064;84;21085;-72
2021/07/29 11:33:49;;;;;;;4.20;3.80;;;;;;;28.88;40.95;99810.73;2056233;84;21058;-74
2021/07/29 11:36:55;;;;;;;5.40;4.00;;;;;;;29.10;40.35;99814.25;2050702;84;21064;-73
2021/07/29 11:39:56;;;;;;;7.67;4.10;;;;;;;29.30;40.02;99802.18;2049802;84;21017;-73
2021/07/29 11:42:58;;;;;;;4.58;3.58;;;;;;;29.41;39.69;99809.09;2061950;84;21082;-73
2021/07/29 11:46:11;;;;;;;6.12;4.05;;;;;;;29.35;38.77;99814.39;2025280;85;21176;-73
2021/07/29 11:49:13;;;;;;;7.50;3.95;;;;;;;29.04;38.33;99816.81;2087623;83;21146;-72
2021/07/29 11:52:15;;;;;;;4.85;3.80;;;;;;;28.65;39.08;99819.81;2086663;83;21046;-73
2021/07/29 11:55:20;;;;;;;4.28;3.80;;;;;;;28.76;39.28;99819.92;2072012;83;21036;-72
2021/07/29 11:58:22;;;;;;;6.80;3.83;;;;;;;28.59;38.96;99817.14;2073029;83;21740;-72
2021/07/29 12:01:24;;;;;;;4.40;3.70;;;;;;;28.35;39.27;99820.42;2080427;83;21073;-72
2021/07/29 12:04:27;;;;;;;4.87;4.37;;;;;;;28.06;39.66;99815.86;2074504;83;20994;-73
2021/07/29 12:07:28;;;;;;;4.42;4.03;;;;;;;27.78;39.62;99810.68;2056719;84;21042;-75
2021/07/29 12:10:32;;;;;;;5.60;3.95;;;;;;;27.66;39.66;99816.53;2039423;84;21050;-76
2021/07/29 12:13:34;;;;;;;5.80;3.67;;;;;;;28.02;39.52;99807.20;2071403;84;21546;-75
2021/07/29 12:16:51;;;;;;;4.35;3.80;;;;;;;28.33;39.29;99805.73;2090189;82;21172;-76
2021/07/29 12:20:05;;;;;;;4.65;3.67;;;;;;;28.51;38.38;99790.51;2105692;82;21571;-80
2021/07/29 12:23:14;;;;;;;5.45;3.85;;;;;;;28.57;38.15;99797.52;2079692;83;21101;-72
2021/07/29 12:26:16;;;;;;;5.03;3.40;;;;;;;28.16;37.37;99797.22;2104435;81;21410;-75
2021/07/29 12:29:41;;;;;;;7.75;3.95;;;;;;;27.55;37.52;99800.02;2105697;82;21567;-75
2021/07/29 12:32:43;;;;;;;5.62;3.45;;;;;;;27.27;38.28;99794.26;2070816;83;21566;-74
2021/07/29 12:36:00;;;;;;;6.15;4.15;;;;;;;27.20;38.84;99795.16;2100939;82;21044;-75
2021/07/29 12:39:03;;;;;;;8.45;3.72;;;;;;;27.57;38.99;99791.56;2082466;83;21066;-74
2021/07/29 12:42:32;;;;;;;4.42;3.92;;;;;;;27.95;38.73;99785.72;2100231;82;21095;-74
2021/07/29 12:45:52;;;;;;;6.67;3.67;;;;;;;28.21;38.77;99774.51;2026906;84;21561;-74
2021/07/29 12:49:00;;;;;;;4.30;3.87;;;;;;;28.52;37.27;99771.69;2068590;83;21100;-73
2021/07/29 12:52:04;;;;;;;7.28;3.70;;;;;;;28.39;37.73;99769.08;2084026;82;21533;-73
2021/07/29 12:55:13;;;;;;;4.33;3.83;;;;;;;28.43;37.04;99774.79;2080415;82;21081;-73
2021/07/29 12:58:13;;;;;;;4.10;3.58;;;;;;;28.32;36.44;99773.27;2093617;82;21098;-73
2021/07/29 13:01:17;;;;;;;9.70;3.75;;;;;;;28.05;36.78;99776.62;2095865;82;21013;-72
2021/07/29 13:04:27;;;;;;;4.72;3.52;;;;;;;27.83;36.73;99773.86;2077169;83;21069;-74
2021/07/29 13:07:29;;;;;;;6.25;3.98;;;;;;;27.68;37.17;99773.45;2056946;82;21749;-73
2021/07/29 13:10:32;;;;;;;4.47;3.90;;;;;;;27.89;36.75;99763.72;2075705;83;21102;-75
2021/07/29 13:13:34;;;;;;;6.28;3.95;;;;;;;28.09;37.42;99759.38;2048895;83;21120;-75
2021/07/29 13:16:37;;;;;;;100.82;14.25;;;;;;;28.34;36.83;99753.34;2060698;82;21175;-75
2021/07/29 13:19:39;;;;;;;7.70;3.92;;;;;;;28.48;35.93;99752.09;2063138;83;21026;-75
2021/07/29 13:22:42;;;;;;;5.10;3.80;;;;;;;28.43;35.86;99750.23;2084312;82;21132;-75
2021/07/29 13:25:45;;;;;;;4.65;3.40;;;;;;;28.45;35.15;99744.50;2102349;81;21104;-74
2021/07/29 13:28:48;;;;;;;4.37;3.55;;;;;;;28.46;35.92;99751.56;2013267;83;22175;-74
2021/07/29 13:31:51;;;;;;;4.72;3.62;;;;;;;28.58;35.14;99747.86;2094818;82;21089;-74
2021/07/29 13:34:54;;;;;;;4.53;3.50;;;;;;;28.52;34.92;99747.13;2076294;82;21098;-75
2021/07/29 13:37:57;;;;;;;3.95;3.30;;;;;;;28.33;34.33;99750.36;2089917;82;21734;-74
2021/07/29 13:41:02;;;;;;;3.65;3.35;;;;;;;28.38;35.08;99744.81;2115265;81;21423;-72
2021/07/29 13:44:09;;;;;;;4.87;3.50;;;;;;;28.54;35.10;99746.81;2088697;82;21170;-74
2021/07/29 13:47:08;;;;;;;5.85;3.22;;;;;;;28.62;33.82;99741.25;2064966;83;21105;-75
2021/07/29 13:50:10;;;;;;;4.15;3.27;;;;;;;28.62;33.58;99729.78;2048430;83;21084;-74
2021/07/29 13:53:13;;;;;;;4.45;3.10;;;;;;;28.49;34.53;99732.68;2094541;81;21222;-74
2021/07/29 13:56:16;;;;;;;4.08;3.08;;;;;;;28.22;32.94;99739.33;2107906;82;21134;-70
2021/07/29 13:59:19;;;;;;;3.58;2.92;;;;;;;27.97;33.41;99735.81;2049919;83;21609;-74
2021/07/29 14:02:24;;;;;;;6.05;3.05;;;;;;;27.91;33.29;99737.79;2100829;82;21065;-74
2021/07/29 14:05:28;;;;;;;3.60;2.95;;;;;;;27.99;33.20;99732.25;2070170;83;21041;-75
2021/07/29 14:08:32;;;;;;;5.67;2.87;;;;;;;28.05;32.83;99731.63;2081694;83;21030;-75
2021/07/29 14:11:35;;;;;;;5.17;3.12;;;;;;;28.08;33.48;99732.41;2112237;81;21092;-74
2021/07/29 14:14:39;;;;;;;9.15;3.12;;;;;;;28.04;33.35;99724.54;2109489;81;21034;-75
2021/07/29 14:17:57;;;;;;;4.10;2.77;;;;;;;28.10;34.13;99731.55;2073504;82;21046;-75